sensor_id;sensor_type;location;lat;lon;timestamp;P1;durP1;ratioP1;P2;durP2;ratioP2
44246;SDS011;29922;0.000;0.000;2022-09-03T00:02:58;0.68;;;0.45;;
44246;SDS011;29922;0.000;0.000;2022-09-03T00:08:24;0.60;;;0.50;;
44246;SDS011;29922;0.000;0.000;2022-09-03T00:13:53;0.60;;;0.60;;
44246;SDS011;29922;0.000;0.000;2022-09-03T00:19:23;0.88;;;0.50;;
44246;SDS011;29922;0.000;0.000;2022-09-03T00:24:47;1.75;;;0.55;;
44246;SDS011;29922;0.000;0.000;2022-09-03T00:30:09;0.60;;;0.60;;
44246;SDS011;29922;0.000;0.000;2022-09-03T00:35:34;1.23;;;0.82;;
44246;SDS011;29922;0.000;0.000;2022-09-03T00:41:03;0.63;;;0.60;;
44246;SDS011;29922;0.000;0.000;2022-09-03T00:46:31;0.60;;;0.52;;
44246;SDS011;29922;0.000;0.000;2022-09-03T00:52:02;1.20;;;0.70;;
44246;SDS011;29922;0.000;0.000;2022-09-03T00:57:34;1.58;;;0.77;;
44246;SDS011;29922;0.000;0.000;2022-09-03T01:03:08;0.38;;;0.38;;
44246;SDS011;29922;0.000;0.000;2022-09-03T01:08:37;1.23;;;0.75;;
44246;SDS011;29922;0.000;0.000;2022-09-03T01:14:21;1.13;;;0.68;;
44246;SDS011;29922;0.000;0.000;2022-09-03T01:19:59;0.57;;;0.57;;
44246;SDS011;29922;0.000;0.000;2022-09-03T01:25:36;0.73;;;0.70;;
44246;SDS011;29922;0.000;0.000;2022-09-03T01:31:14;0.82;;;0.80;;
44246;SDS011;29922;0.000;0.000;2022-09-03T01:36:46;0.80;;;0.60;;
44246;SDS011;29922;0.000;0.000;2022-09-03T01:42:20;0.65;;;0.65;;
44246;SDS011;29922;0.000;0.000;2022-09-03T01:47:54;0.73;;;0.70;;
44246;SDS011;29922;0.000;0.000;2022-09-03T01:53:32;1.27;;;0.68;;
44246;SDS011;29922;0.000;0.000;2022-09-03T01:59:21;0.75;;;0.70;;
44246;SDS011;29922;0.000;0.000;2022-09-03T02:04:56;0.60;;;0.60;;
44246;SDS011;29922;0.000;0.000;2022-09-03T02:10:21;1.08;;;0.77;;
44246;SDS011;29922;0.000;0.000;2022-09-03T02:15:49;0.77;;;0.70;;
44246;SDS011;29922;0.000;0.000;2022-09-03T02:21:15;1.25;;;0.77;;
44246;SDS011;29922;0.000;0.000;2022-09-03T02:26:38;0.68;;;0.68;;
44246;SDS011;29922;0.000;0.000;2022-09-03T02:31:59;0.70;;;0.70;;
44246;SDS011;29922;0.000;0.000;2022-09-03T02:37:21;1.50;;;0.82;;
44246;SDS011;29922;0.000;0.000;2022-09-03T02:42:42;0.70;;;0.60;;
44246;SDS011;29922;0.000;0.000;2022-09-03T02:48:03;1.30;;;0.65;;
44246;SDS011;29922;0.000;0.000;2022-09-03T02:53:25;1.42;;;0.90;;
44246;SDS011;29922;0.000;0.000;2022-09-03T02:58:46;0.93;;;0.70;;
44246;SDS011;29922;0.000;0.000;2022-09-03T03:04:07;0.68;;;0.60;;
44246;SDS011;29922;0.000;0.000;2022-09-03T03:09:29;1.50;;;1.02;;
44246;SDS011;29922;0.000;0.000;2022-09-03T03:14:49;1.70;;;0.90;;
44246;SDS011;29922;0.000;0.000;2022-09-03T03:20:10;1.85;;;0.80;;
44246;SDS011;29922;0.000;0.000;2022-09-03T03:25:32;0.95;;;0.80;;
44246;SDS011;29922;0.000;0.000;2022-09-03T03:30:53;1.05;;;0.80;;
44246;SDS011;29922;0.000;0.000;2022-09-03T03:36:14;1.45;;;0.70;;
44246;SDS011;29922;0.000;0.000;2022-09-03T03:41:36;1.20;;;0.95;;
44246;SDS011;29922;0.000;0.000;2022-09-03T03:46:56;1.30;;;0.98;;
44246;SDS011;29922;0.000;0.000;2022-09-03T03:52:17;1.10;;;0.80;;
44246;SDS011;29922;0.000;0.000;2022-09-03T03:57:39;1.15;;;0.80;;
44246;SDS011;29922;0.000;0.000;2022-09-03T04:02:59;1.40;;;0.93;;
44246;SDS011;29922;0.000;0.000;2022-09-03T04:08:20;1.90;;;1.00;;
44246;SDS011;29922;0.000;0.000;2022-09-03T04:13:42;1.38;;;0.95;;
44246;SDS011;29922;0.000;0.000;2022-09-03T04:19:04;0.90;;;0.70;;
44246;SDS011;29922;0.000;0.000;2022-09-03T04:24:25;0.85;;;0.80;;
44246;SDS011;29922;0.000;0.000;2022-09-03T04:29:47;1.45;;;0.90;;
44246;SDS011;29922;0.000;0.000;2022-09-03T04:35:08;1.38;;;0.80;;
44246;SDS011;29922;0.000;0.000;2022-09-03T04:40:28;0.82;;;0.70;;
44246;SDS011;29922;0.000;0.000;2022-09-03T04:45:50;1.05;;;0.70;;
44246;SDS011;29922;0.000;0.000;2022-09-03T04:51:16;1.15;;;0.90;;
44246;SDS011;29922;0.000;0.000;2022-09-03T04:56:38;1.00;;;0.75;;
44246;SDS011;29922;0.000;0.000;2022-09-03T05:02:00;1.30;;;0.88;;
44246;SDS011;29922;0.000;0.000;2022-09-03T05:07:21;1.33;;;1.00;;
44246;SDS011;29922;0.000;0.000;2022-09-03T05:12:41;1.05;;;0.90;;
44246;SDS011;29922;0.000;0.000;2022-09-03T05:18:03;1.33;;;0.90;;
44246;SDS011;29922;0.000;0.000;2022-09-03T05:23:24;0.93;;;0.80;;
44246;SDS011;29922;0.000;0.000;2022-09-03T05:28:45;1.20;;;0.90;;
44246;SDS011;29922;0.000;0.000;2022-09-03T05:34:08;1.00;;;0.80;;
44246;SDS011;29922;0.000;0.000;2022-09-03T05:39:29;1.00;;;0.80;;
44246;SDS011;29922;0.000;0.000;2022-09-03T05:44:49;1.38;;;0.98;;
44246;SDS011;29922;0.000;0.000;2022-09-03T05:50:11;0.80;;;0.70;;
44246;SDS011;29922;0.000;0.000;2022-09-03T05:55:32;1.13;;;0.90;;
44246;SDS011;29922;0.000;0.000;2022-09-03T06:00:53;1.42;;;0.90;;
44246;SDS011;29922;0.000;0.000;2022-09-03T06:06:15;1.60;;;1.00;;
44246;SDS011;29922;0.000;0.000;2022-09-03T06:11:36;1.58;;;0.90;;
44246;SDS011;29922;0.000;0.000;2022-09-03T06:16:58;2.28;;;1.10;;
44246;SDS011;29922;0.000;0.000;2022-09-03T06:22:20;1.40;;;0.80;;
44246;SDS011;29922;0.000;0.000;2022-09-03T06:27:42;1.75;;;0.90;;
44246;SDS011;29922;0.000;0.000;2022-09-03T06:33:03;1.88;;;0.88;;
44246;SDS011;29922;0.000;0.000;2022-09-03T06:38:26;1.27;;;0.95;;
44246;SDS011;29922;0.000;0.000;2022-09-03T06:43:50;1.13;;;1.00;;
44246;SDS011;29922;0.000;0.000;2022-09-03T06:49:12;1.10;;;0.88;;
44246;SDS011;29922;0.000;0.000;2022-09-03T06:54:35;0.77;;;0.60;;
44246;SDS011;29922;0.000;0.000;2022-09-03T06:59:58;0.88;;;0.73;;
44246;SDS011;29922;0.000;0.000;2022-09-03T07:05:20;1.00;;;0.70;;
44246;SDS011;29922;0.000;0.000;2022-09-03T07:10:47;0.85;;;0.70;;
44246;SDS011;29922;0.000;0.000;2022-09-03T07:16:09;0.95;;;0.68;;
44246;SDS011;29922;0.000;0.000;2022-09-03T07:21:33;1.20;;;0.80;;
44246;SDS011;29922;0.000;0.000;2022-09-03T07:26:56;1.50;;;0.93;;
44246;SDS011;29922;0.000;0.000;2022-09-03T07:32:17;2.30;;;0.93;;
44246;SDS011;29922;0.000;0.000;2022-09-03T07:37:39;2.35;;;0.90;;
44246;SDS011;29922;0.000;0.000;2022-09-03T07:43:02;2.42;;;0.90;;
44246;SDS011;29922;0.000;0.000;2022-09-03T07:48:23;1.83;;;0.95;;
44246;SDS011;29922;0.000;0.000;2022-09-03T07:53:43;1.30;;;0.90;;
44246;SDS011;29922;0.000;0.000;2022-09-03T07:59:05;3.05;;;0.90;;
44246;SDS011;29922;0.000;0.000;2022-09-03T08:04:27;1.48;;;0.88;;
44246;SDS011;29922;0.000;0.000;2022-09-03T08:09:49;1.20;;;0.88;;
44246;SDS011;29922;0.000;0.000;2022-09-03T08:15:11;1.23;;;0.95;;
44246;SDS011;29922;0.000;0.000;2022-09-03T08:20:31;1.38;;;1.05;;
44246;SDS011;29922;0.000;0.000;2022-09-03T08:25:56;1.52;;;0.95;;
44246;SDS011;29922;0.000;0.000;2022-09-03T08:31:20;1.02;;;0.80;;
44246;SDS011;29922;0.000;0.000;2022-09-03T08:36:42;1.50;;;1.00;;
44246;SDS011;29922;0.000;0.000;2022-09-03T08:42:09;1.13;;;0.77;;
44246;SDS011;29922;0.000;0.000;2022-09-03T08:47:44;1.00;;;0.68;;
44246;SDS011;29922;0.000;0.000;2022-09-03T08:53:11;1.10;;;0.73;;
44246;SDS011;29922;0.000;0.000;2022-09-03T08:58:38;1.00;;;0.80;;
44246;SDS011;29922;0.000;0.000;2022-09-03T09:04:06;1.58;;;0.90;;
44246;SDS011;29922;0.000;0.000;2022-09-03T09:09:43;1.10;;;0.73;;
44246;SDS011;29922;0.000;0.000;2022-09-03T09:15:10;1.00;;;0.80;;
44246;SDS011;29922;0.000;0.000;2022-09-03T09:20:41;2.17;;;0.70;;
44246;SDS011;29922;0.000;0.000;2022-09-03T09:26:09;2.95;;;0.85;;
44246;SDS011;29922;0.000;0.000;2022-09-03T09:31:33;0.85;;;0.63;;
44246;SDS011;29922;0.000;0.000;2022-09-03T09:36:55;1.00;;;0.80;;
44246;SDS011;29922;0.000;0.000;2022-09-03T09:42:15;1.20;;;0.80;;
44246;SDS011;29922;0.000;0.000;2022-09-03T09:47:41;2.38;;;0.52;;
44246;SDS011;29922;0.000;0.000;2022-09-03T09:53:04;1.92;;;0.60;;
44246;SDS011;29922;0.000;0.000;2022-09-03T09:58:33;0.95;;;0.60;;
44246;SDS011;29922;0.000;0.000;2022-09-03T10:03:55;1.15;;;0.70;;
44246;SDS011;29922;0.000;0.000;2022-09-03T10:09:19;1.17;;;0.65;;
44246;SDS011;29922;0.000;0.000;2022-09-03T10:14:43;1.52;;;0.47;;
44246;SDS011;29922;0.000;0.000;2022-09-03T10:20:13;0.93;;;0.63;;
44246;SDS011;29922;0.000;0.000;2022-09-03T10:37:08;0.80;;;0.52;;
44246;SDS011;29922;0.000;0.000;2022-09-03T10:42:42;0.85;;;0.57;;
44246;SDS011;29922;0.000;0.000;2022-09-03T10:48:21;1.33;;;0.52;;
44246;SDS011;29922;0.000;0.000;2022-09-03T10:54:27;0.38;;;0.35;;
44246;SDS011;29922;0.000;0.000;2022-09-03T11:00:00;1.08;;;0.68;;
44246;SDS011;29922;0.000;0.000;2022-09-03T11:05:28;0.30;;;0.30;;
44246;SDS011;29922;0.000;0.000;2022-09-03T11:10:56;0.88;;;0.40;;
44246;SDS011;29922;0.000;0.000;2022-09-03T11:16:31;0.85;;;0.55;;
44246;SDS011;29922;0.000;0.000;2022-09-03T11:21:57;0.55;;;0.43;;
44246;SDS011;29922;0.000;0.000;2022-09-03T11:27:21;5.43;;;0.60;;
44246;SDS011;29922;0.000;0.000;2022-09-03T11:32:58;0.47;;;0.40;;
44246;SDS011;29922;0.000;0.000;2022-09-03T11:38:26;0.60;;;0.40;;
44246;SDS011;29922;0.000;0.000;2022-09-03T11:43:49;0.43;;;0.40;;
44246;SDS011;29922;0.000;0.000;2022-09-03T11:49:12;0.47;;;0.40;;
44246;SDS011;29922;0.000;0.000;2022-09-03T11:54:46;0.63;;;0.40;;
44246;SDS011;29922;0.000;0.000;2022-09-03T12:00:07;0.45;;;0.30;;
44246;SDS011;29922;0.000;0.000;2022-09-03T12:05:34;0.50;;;0.40;;
44246;SDS011;29922;0.000;0.000;2022-09-03T12:11:04;0.50;;;0.40;;
44246;SDS011;29922;0.000;0.000;2022-09-03T12:16:43;0.60;;;0.25;;
44246;SDS011;29922;0.000;0.000;2022-09-03T12:22:21;0.57;;;0.35;;
44246;SDS011;29922;0.000;0.000;2022-09-03T12:27:46;0.65;;;0.32;;
44246;SDS011;29922;0.000;0.000;2022-09-03T12:33:07;0.47;;;0.30;;
44246;SDS011;29922;0.000;0.000;2022-09-03T12:38:32;0.70;;;0.30;;
44246;SDS011;29922;0.000;0.000;2022-09-03T12:43:54;0.60;;;0.30;;
44246;SDS011;29922;0.000;0.000;2022-09-03T12:49:16;0.65;;;0.30;;
44246;SDS011;29922;0.000;0.000;2022-09-03T12:54:40;0.73;;;0.30;;
44246;SDS011;29922;0.000;0.000;2022-09-03T13:00:07;0.32;;;0.30;;
44246;SDS011;29922;0.000;0.000;2022-09-03T13:05:33;1.13;;;0.40;;
44246;SDS011;29922;0.000;0.000;2022-09-03T13:16:28;1.00;;;0.25;;
44246;SDS011;29922;0.000;0.000;2022-09-03T13:22:07;0.50;;;0.28;;
44246;SDS011;29922;0.000;0.000;2022-09-03T13:27:40;0.70;;;0.40;;
44246;SDS011;29922;0.000;0.000;2022-09-03T13:33:07;0.50;;;0.20;;
44246;SDS011;29922;0.000;0.000;2022-09-03T13:38:36;0.38;;;0.30;;
44246;SDS011;29922;0.000;0.000;2022-09-03T13:44:05;0.50;;;0.28;;
44246;SDS011;29922;0.000;0.000;2022-09-03T13:49:32;1.95;;;0.40;;
44246;SDS011;29922;0.000;0.000;2022-09-03T13:55:24;0.43;;;0.30;;
44246;SDS011;29922;0.000;0.000;2022-09-03T14:00:53;0.57;;;0.30;;
44246;SDS011;29922;0.000;0.000;2022-09-03T14:06:35;0.50;;;0.20;;
44246;SDS011;29922;0.000;0.000;2022-09-03T14:12:03;0.60;;;0.43;;
44246;SDS011;29922;0.000;0.000;2022-09-03T14:17:38;0.28;;;0.22;;
44246;SDS011;29922;0.000;0.000;2022-09-03T14:23:06;0.88;;;0.10;;
44246;SDS011;29922;0.000;0.000;2022-09-03T14:28:45;0.55;;;0.32;;
44246;SDS011;29922;0.000;0.000;2022-09-03T14:34:11;0.60;;;0.40;;
44246;SDS011;29922;0.000;0.000;2022-09-03T14:39:44;0.45;;;0.20;;
44246;SDS011;29922;0.000;0.000;2022-09-03T14:45:23;0.98;;;0.30;;
44246;SDS011;29922;0.000;0.000;2022-09-03T14:51:30;0.38;;;0.30;;
44246;SDS011;29922;0.000;0.000;2022-09-03T15:02:51;0.35;;;0.20;;
44246;SDS011;29922;0.000;0.000;2022-09-03T15:08:46;0.63;;;0.30;;
44246;SDS011;29922;0.000;0.000;2022-09-03T15:14:23;0.32;;;0.25;;
44246;SDS011;29922;0.000;0.000;2022-09-03T15:19:51;0.60;;;0.32;;
44246;SDS011;29922;0.000;0.000;2022-09-03T15:25:29;0.75;;;0.28;;
44246;SDS011;29922;0.000;0.000;2022-09-03T15:31:09;0.20;;;0.20;;
44246;SDS011;29922;0.000;0.000;2022-09-03T15:36:38;0.47;;;0.30;;
44246;SDS011;29922;0.000;0.000;2022-09-03T15:42:05;0.60;;;0.30;;
44246;SDS011;29922;0.000;0.000;2022-09-03T15:47:36;0.30;;;0.20;;
44246;SDS011;29922;0.000;0.000;2022-09-03T15:53:18;0.32;;;0.28;;
44246;SDS011;29922;0.000;0.000;2022-09-03T15:58:56;1.02;;;0.30;;
44246;SDS011;29922;0.000;0.000;2022-09-03T16:04:24;0.63;;;0.40;;
44246;SDS011;29922;0.000;0.000;2022-09-03T16:10:09;0.30;;;0.22;;
44246;SDS011;29922;0.000;0.000;2022-09-03T16:15:37;0.47;;;0.30;;
44246;SDS011;29922;0.000;0.000;2022-09-03T16:21:05;0.22;;;0.20;;
44246;SDS011;29922;0.000;0.000;2022-09-03T16:26:32;0.32;;;0.30;;
44246;SDS011;29922;0.000;0.000;2022-09-03T16:32:01;0.22;;;0.22;;
44246;SDS011;29922;0.000;0.000;2022-09-03T16:37:33;0.22;;;0.22;;
44246;SDS011;29922;0.000;0.000;2022-09-03T16:43:01;0.52;;;0.30;;
44246;SDS011;29922;0.000;0.000;2022-09-03T16:48:31;0.40;;;0.30;;
44246;SDS011;29922;0.000;0.000;2022-09-03T16:54:06;0.60;;;0.20;;
44246;SDS011;29922;0.000;0.000;2022-09-03T16:59:57;0.32;;;0.25;;
44246;SDS011;29922;0.000;0.000;2022-09-03T17:11:38;0.20;;;0.20;;
44246;SDS011;29922;0.000;0.000;2022-09-03T17:17:14;2.53;;;0.25;;
44246;SDS011;29922;0.000;0.000;2022-09-03T17:23:05;1.00;;;0.45;;
44246;SDS011;29922;0.000;0.000;2022-09-03T17:28:40;0.40;;;0.20;;
44246;SDS011;29922;0.000;0.000;2022-09-03T17:34:19;0.63;;;0.28;;
44246;SDS011;29922;0.000;0.000;2022-09-03T17:45:25;0.50;;;0.40;;
44246;SDS011;29922;0.000;0.000;2022-09-03T17:51:03;1.20;;;0.28;;
44246;SDS011;29922;0.000;0.000;2022-09-03T17:56:32;0.50;;;0.40;;
44246;SDS011;29922;0.000;0.000;2022-09-03T18:02:06;1.45;;;0.47;;
44246;SDS011;29922;0.000;0.000;2022-09-03T18:07:43;0.57;;;0.45;;
44246;SDS011;29922;0.000;0.000;2022-09-03T18:13:13;0.30;;;0.30;;
44246;SDS011;29922;0.000;0.000;2022-09-03T18:18:41;0.40;;;0.25;;
44246;SDS011;29922;0.000;0.000;2022-09-03T18:24:15;0.50;;;0.30;;
44246;SDS011;29922;0.000;0.000;2022-09-03T18:30:09;0.30;;;0.30;;
44246;SDS011;29922;0.000;0.000;2022-09-03T18:35:48;0.32;;;0.30;;
44246;SDS011;29922;0.000;0.000;2022-09-03T18:41:30;0.32;;;0.32;;
44246;SDS011;29922;0.000;0.000;2022-09-03T18:47:35;0.30;;;0.30;;
44246;SDS011;29922;0.000;0.000;2022-09-03T18:53:27;0.35;;;0.35;;
44246;SDS011;29922;0.000;0.000;2022-09-03T18:59:16;0.77;;;0.20;;
44246;SDS011;29922;0.000;0.000;2022-09-03T19:05:12;0.50;;;0.43;;
44246;SDS011;29922;0.000;0.000;2022-09-03T19:10:58;0.50;;;0.40;;
44246;SDS011;29922;0.000;0.000;2022-09-03T19:22:33;0.40;;;0.32;;
44246;SDS011;29922;0.000;0.000;2022-09-03T19:28:14;0.73;;;0.57;;
44246;SDS011;29922;0.000;0.000;2022-09-03T19:33:57;0.43;;;0.30;;
44246;SDS011;29922;0.000;0.000;2022-09-03T19:39:53;0.50;;;0.40;;
44246;SDS011;29922;0.000;0.000;2022-09-03T19:45:49;0.47;;;0.40;;
44246;SDS011;29922;0.000;0.000;2022-09-03T19:51:38;0.70;;;0.50;;
44246;SDS011;29922;0.000;0.000;2022-09-03T19:57:30;0.73;;;0.43;;
44246;SDS011;29922;0.000;0.000;2022-09-03T20:03:09;0.70;;;0.50;;
44246;SDS011;29922;0.000;0.000;2022-09-03T20:08:50;0.77;;;0.40;;
44246;SDS011;29922;0.000;0.000;2022-09-03T20:14:30;0.55;;;0.35;;
44246;SDS011;29922;0.000;0.000;2022-09-03T20:20:01;0.63;;;0.50;;
44246;SDS011;29922;0.000;0.000;2022-09-03T20:25:34;0.93;;;0.50;;
44246;SDS011;29922;0.000;0.000;2022-09-03T20:31:19;0.38;;;0.30;;
44246;SDS011;29922;0.000;0.000;2022-09-03T20:36:47;0.75;;;0.50;;
44246;SDS011;29922;0.000;0.000;2022-09-03T20:48:19;0.90;;;0.50;;
44246;SDS011;29922;0.000;0.000;2022-09-03T20:59:36;0.80;;;0.50;;
44246;SDS011;29922;0.000;0.000;2022-09-03T21:05:16;0.50;;;0.43;;
44246;SDS011;29922;0.000;0.000;2022-09-03T21:10:45;0.80;;;0.50;;
44246;SDS011;29922;0.000;0.000;2022-09-03T21:16:14;1.10;;;0.60;;
44246;SDS011;29922;0.000;0.000;2022-09-03T21:21:49;0.70;;;0.57;;
44246;SDS011;29922;0.000;0.000;2022-09-03T21:27:16;0.40;;;0.38;;
44246;SDS011;29922;0.000;0.000;2022-09-03T21:32:43;0.40;;;0.32;;
44246;SDS011;29922;0.000;0.000;2022-09-03T21:38:10;0.60;;;0.40;;
44246;SDS011;29922;0.000;0.000;2022-09-03T21:43:36;0.55;;;0.50;;
44246;SDS011;29922;0.000;0.000;2022-09-03T21:49:05;0.60;;;0.52;;
44246;SDS011;29922;0.000;0.000;2022-09-03T21:54:30;0.52;;;0.50;;
44246;SDS011;29922;0.000;0.000;2022-09-03T21:59:55;0.80;;;0.57;;
44246;SDS011;29922;0.000;0.000;2022-09-03T22:05:39;0.32;;;0.30;;
44246;SDS011;29922;0.000;0.000;2022-09-03T22:11:09;0.90;;;0.50;;
44246;SDS011;29922;0.000;0.000;2022-09-03T22:16:36;0.85;;;0.70;;
44246;SDS011;29922;0.000;0.000;2022-09-03T22:22:05;0.60;;;0.60;;
44246;SDS011;29922;0.000;0.000;2022-09-03T22:27:35;0.60;;;0.40;;
44246;SDS011;29922;0.000;0.000;2022-09-03T22:33:05;1.48;;;0.40;;
44246;SDS011;29922;0.000;0.000;2022-09-03T22:44:35;0.68;;;0.57;;
44246;SDS011;29922;0.000;0.000;2022-09-03T22:50:11;0.98;;;0.50;;
44246;SDS011;29922;0.000;0.000;2022-09-03T22:55:40;0.93;;;0.68;;
44246;SDS011;29922;0.000;0.000;2022-09-03T23:01:11;0.80;;;0.68;;
44246;SDS011;29922;0.000;0.000;2022-09-03T23:06:38;1.25;;;0.80;;
44246;SDS011;29922;0.000;0.000;2022-09-03T23:12:09;0.68;;;0.55;;
44246;SDS011;29922;0.000;0.000;2022-09-03T23:17:36;0.32;;;0.32;;
44246;SDS011;29922;0.000;0.000;2022-09-03T23:23:03;0.52;;;0.50;;
44246;SDS011;29922;0.000;0.000;2022-09-03T23:28:33;1.17;;;0.60;;
44246;SDS011;29922;0.000;0.000;2022-09-03T23:33:58;0.93;;;0.52;;
44246;SDS011;29922;0.000;0.000;2022-09-03T23:39:22;0.50;;;0.40;;
44246;SDS011;29922;0.000;0.000;2022-09-03T23:45:07;2.15;;;0.57;;
44246;SDS011;29922;0.000;0.000;2022-09-03T23:50:42;0.52;;;0.50;;
44246;SDS011;29922;0.000;0.000;2022-09-03T23:56:25;0.73;;;0.57;;
